Time;durP1;ratioP1;P1;durP2;ratioP2;P2;SDS_P1;SDS_P2;PMS_P1;PMS_P2;Temp;Humidity;BMP_temperature;BMP_pressure;BME280_temperature;BME280_humidity;BME280_pressure;Samples;Min_cycle;Max_cycle;Signal;HPM_P1;HPM_P2
2023/05/04 00:02:10;;;;;;;7.43;4.68;;;11.30;94.30;;;;;;4940259;29;20123;-71
2023/05/04 05:03:40;;;;;;;12.88;6.95;;;9.00;99.90;;;;;;4922283;29;20187;-71
2023/05/04 05:06:06;;;;;;;11.05;6.45;;;9.10;99.90;;;;;;4925830;29;20309;-71
2023/05/04 05:08:32;;;;;;;10.75;6.60;;;9.20;99.90;;;;;;4907545;29;20130;-73
2023/05/04 05:10:58;;;;;;;11.50;7.55;;;9.30;99.90;;;;;;4913558;29;20104;-71
2023/05/04 05:13:24;;;;;;;10.10;6.78;;;9.40;99.90;;;;;;4908395;29;20037;-71
2023/05/04 05:15:50;;;;;;;15.07;7.43;;;9.40;99.90;;;;;;4907001;29;20033;-70
2023/05/04 05:18:15;;;;;;;13.57;8.32;;;9.50;99.90;;;;;;4923579;29;20047;-69
2023/05/04 05:20:41;;;;;;;11.88;7.60;;;9.60;99.90;;;;;;4915434;29;20028;-69
2023/05/04 05:23:07;;;;;;;14.77;8.57;;;9.70;99.90;;;;;;4926199;29;20305;-69
2023/05/04 05:25:32;;;;;;;13.55;8.30;;;9.80;99.90;;;;;;4930010;29;20042;-70
2023/05/04 05:27:58;;;;;;;11.98;7.18;;;9.80;99.90;;;;;;4928199;29;20047;-70
2023/05/04 05:30:24;;;;;;;15.20;8.20;;;9.90;99.90;;;;;;4929770;29;20039;-69
2023/05/04 05:32:49;;;;;;;15.35;7.97;;;10.00;99.90;;;;;;4928947;29;20036;-70
2023/05/04 05:35:15;;;;;;;13.85;7.75;;;10.20;99.90;;;;;;4929811;29;20320;-71
2023/05/04 05:37:41;;;;;;;14.55;8.93;;;10.30;99.90;;;;;;4915382;29;20028;-71
2023/05/04 05:40:07;;;;;;;13.60;8.38;;;10.40;99.90;;;;;;4911359;29;20302;-70
2023/05/04 05:42:33;;;;;;;16.83;8.88;;;10.40;99.90;;;;;;4910821;29;20104;-71
2023/05/04 05:45:00;;;;;;;15.85;8.63;;;10.50;99.90;;;;;;4910294;29;20298;-71
2023/05/04 05:47:26;;;;;;;15.57;7.57;;;10.60;99.90;;;;;;4910793;29;20044;-70
2023/05/04 05:49:52;;;;;;;13.43;8.45;;;10.70;99.90;;;;;;4910004;29;20016;-71
2023/05/04 05:52:18;;;;;;;14.13;8.45;;;10.70;99.90;;;;;;4910788;29;20073;-70
2023/05/04 05:54:43;;;;;;;14.30;8.48;;;10.90;99.90;;;;;;4910098;29;20032;-71
2023/05/04 05:57:09;;;;;;;14.32;8.88;;;10.80;99.90;;;;;;4910625;29;20032;-71
2023/05/04 05:59:35;;;;;;;11.60;8.02;;;10.80;99.90;;;;;;4926416;29;20028;-71
2023/05/04 06:02:00;;;;;;;16.15;9.40;;;10.80;99.90;;;;;;4928322;29;20047;-71
2023/05/04 06:04:26;;;;;;;14.27;8.93;;;10.90;99.90;;;;;;4929259;29;20091;-71
2023/05/04 06:06:52;;;;;;;20.02;9.85;;;11.10;99.90;;;;;;4928639;29;20060;-70
2023/05/04 06:09:18;;;;;;;13.68;8.75;;;11.20;99.90;;;;;;4929310;29;20071;-71
2023/05/04 06:11:43;;;;;;;13.57;8.93;;;11.20;99.90;;;;;;4929039;29;20075;-71
2023/05/04 06:14:09;;;;;;;15.55;9.35;;;11.30;99.90;;;;;;4929323;29;20032;-71
2023/05/04 06:16:35;;;;;;;15.60;9.35;;;11.50;99.90;;;;;;4928710;29;20032;-70
2023/05/04 06:19:00;;;;;;;13.50;8.95;;;11.60;99.90;;;;;;4928795;29;20043;-70
2023/05/04 06:21:26;;;;;;;14.13;9.80;;;11.80;99.90;;;;;;4928435;29;20047;-71
2023/05/04 06:23:52;;;;;;;15.95;9.45;;;11.90;99.90;;;;;;4928129;29;20087;-69
2023/05/04 06:26:18;;;;;;;16.60;10.27;;;12.00;99.90;;;;;;4931135;29;20023;-70
2023/05/04 06:28:44;;;;;;;16.00;9.70;;;12.10;99.90;;;;;;4928010;29;20365;-70
2023/05/04 06:31:10;;;;;;;13.90;9.25;;;12.20;99.90;;;;;;4928674;29;20099;-69
2023/05/04 06:33:37;;;;;;;12.27;8.70;;;12.30;99.90;;;;;;4917664;29;20045;-70
2023/05/04 06:36:03;;;;;;;16.42;10.05;;;12.40;99.90;;;;;;4924974;29;20024;-69
2023/05/04 06:38:29;;;;;;;14.98;9.77;;;12.50;99.90;;;;;;4919199;29;20029;-70
2023/05/04 06:40:55;;;;;;;13.85;8.85;;;12.60;99.90;;;;;;4908914;29;20047;-70
2023/05/04 06:43:20;;;;;;;17.48;10.98;;;12.80;99.90;;;;;;4915265;29;20067;-70
2023/05/04 06:45:46;;;;;;;17.27;10.95;;;12.90;99.90;;;;;;4913787;29;20064;-70
2023/05/04 06:48:12;;;;;;;16.45;10.05;;;13.00;99.90;;;;;;4909477;29;20032;-70
2023/05/04 06:50:38;;;;;;;20.25;11.00;;;13.10;99.90;;;;;;4909162;29;20029;-69
2023/05/04 06:53:09;;;;;;;17.83;11.10;;;13.20;99.90;;;;;;4909580;29;20036;-71
2023/05/04 06:55:36;;;;;;;16.33;10.45;;;13.30;99.90;;;;;;4909372;29;20036;-70
2023/05/04 06:58:02;;;;;;;17.70;11.48;;;13.40;99.90;;;;;;4915216;29;20032;-70
2023/05/04 07:00:27;;;;;;;21.42;11.90;;;13.60;99.90;;;;;;4927935;29;20020;-71
2023/05/04 07:02:53;;;;;;;19.23;11.35;;;13.60;99.90;;;;;;4908428;29;20044;-71
2023/05/04 07:05:21;;;;;;;21.50;11.75;;;13.70;99.80;;;;;;4909287;29;20211;-70
2023/05/04 07:07:47;;;;;;;21.27;11.48;;;13.70;99.40;;;;;;4908661;29;20032;-69
2023/05/04 07:10:14;;;;;;;19.15;11.70;;;14.00;99.50;;;;;;4929545;29;20032;-70
2023/05/04 07:12:40;;;;;;;19.10;10.93;;;14.10;98.80;;;;;;4927974;29;20046;-70
2023/05/04 07:15:07;;;;;;;19.15;10.25;;;14.10;98.70;;;;;;4927830;29;20031;-71
2023/05/04 07:17:33;;;;;;;15.98;10.80;;;14.20;98.30;;;;;;4927625;29;20032;-71
2023/05/04 07:20:03;;;;;;;20.13;10.48;;;14.40;98.20;;;;;;4927445;29;20099;-70
2023/05/04 07:22:30;;;;;;;14.32;10.13;;;14.50;97.90;;;;;;4927474;29;20043;-70
2023/05/04 07:24:59;;;;;;;13.52;9.27;;;14.60;97.90;;;;;;4927056;29;20046;-70
2023/05/04 07:27:25;;;;;;;14.77;9.90;;;14.80;98.10;;;;;;4927542;29;20301;-70
2023/05/04 07:29:51;;;;;;;13.32;10.02;;;15.00;97.50;;;;;;4927119;29;20091;-70
2023/05/04 07:32:17;;;;;;;12.63;9.25;;;15.20;96.90;;;;;;4927440;29;20027;-70
2023/05/04 07:34:44;;;;;;;13.38;9.70;;;15.20;96.80;;;;;;4927008;29;20047;-72
2023/05/04 07:37:10;;;;;;;15.10;9.15;;;15.30;96.60;;;;;;4923770;29;20068;-70
2023/05/04 07:39:37;;;;;;;14.05;8.75;;;15.50;96.20;;;;;;4908340;29;20252;-71
2023/05/04 07:42:04;;;;;;;16.60;9.23;;;15.60;96.10;;;;;;4907824;29;20116;-70
2023/05/04 07:44:30;;;;;;;13.68;9.30;;;15.70;95.80;;;;;;4908124;29;20056;-71
2023/05/04 07:47:00;;;;;;;16.23;9.35;;;15.70;95.70;;;;;;4908049;29;20055;-71
2023/05/04 07:49:26;;;;;;;12.93;9.30;;;15.90;95.30;;;;;;4908655;29;20028;-71
2023/05/04 07:51:52;;;;;;;13.80;9.35;;;15.90;94.90;;;;;;4907960;29;20036;-71
2023/05/04 07:54:17;;;;;;;14.82;8.55;;;16.10;94.90;;;;;;4910480;29;20329;-71
2023/05/04 07:56:43;;;;;;;12.10;8.85;;;16.30;94.70;;;;;;4926162;29;20032;-71
2023/05/04 07:59:09;;;;;;;14.82;8.88;;;16.40;93.80;;;;;;4923549;29;20031;-70
2023/05/04 08:01:35;;;;;;;16.23;9.77;;;16.50;93.50;;;;;;4926711;29;20103;-72
2023/05/04 08:04:02;;;;;;;12.73;8.80;;;16.70;93.50;;;;;;4926353;29;20048;-70
2023/05/04 08:06:28;;;;;;;13.90;8.15;;;16.80;93.50;;;;;;4926729;29;20377;-70
2023/05/04 08:08:54;;;;;;;12.85;7.93;;;16.90;93.30;;;;;;4908818;29;20035;-70
2023/05/04 08:11:20;;;;;;;10.95;7.30;;;17.00;93.60;;;;;;4910266;29;20054;-70
2023/05/04 08:13:49;;;;;;;10.38;7.93;;;17.10;93.20;;;;;;4909735;29;20064;-70
2023/05/04 08:16:15;;;;;;;11.93;7.70;;;17.30;92.90;;;;;;4907799;29;20055;-70
2023/05/04 08:18:41;;;;;;;10.48;7.68;;;17.30;91.90;;;;;;4913087;29;20299;-71
2023/05/04 08:21:07;;;;;;;12.25;8.05;;;17.40;91.70;;;;;;4906044;29;20267;-71
2023/05/04 08:23:34;;;;;;;12.43;7.75;;;17.50;91.70;;;;;;4924151;29;20052;-70
2023/05/04 08:26:03;;;;;;;11.02;8.23;;;17.60;91.60;;;;;;4907218;29;20032;-70
2023/05/04 08:28:30;;;;;;;13.13;8.30;;;17.70;91.10;;;;;;4926770;29;20155;-70
2023/05/04 08:30:56;;;;;;;13.00;8.00;;;17.80;90.90;;;;;;4926374;29;20046;-70
2023/05/04 08:33:22;;;;;;;14.38;8.00;;;17.80;90.90;;;;;;4926703;29;20043;-70
2023/05/04 08:35:48;;;;;;;14.35;7.35;;;17.90;90.70;;;;;;4926168;29;20036;-70
2023/05/04 08:38:14;;;;;;;10.95;6.30;;;18.00;90.10;;;;;;4912806;29;20040;-70
2023/05/04 08:40:41;;;;;;;9.15;6.55;;;18.10;89.60;;;;;;4907539;29;20055;-70
2023/05/04 08:43:07;;;;;;;6.10;4.23;;;18.20;88.30;;;;;;4890646;29;20040;-70
2023/05/04 08:45:37;;;;;;;12.73;6.68;;;18.30;83.50;;;;;;4913577;29;20207;-70
2023/05/04 08:48:04;;;;;;;5.80;4.10;;;18.40;89.00;;;;;;4926296;29;20214;-71
2023/05/04 08:50:33;;;;;;;6.63;3.85;;;18.60;82.10;;;;;;4926330;29;20064;-70
2023/05/04 08:53:02;;;;;;;4.90;3.70;;;18.60;81.10;;;;;;4925940;29;20246;-71
2023/05/04 08:55:30;;;;;;;5.90;3.45;;;18.70;80.20;;;;;;4926419;29;20047;-71
2023/05/04 08:57:58;;;;;;;;;;;18.90;80.00;;;;;;4925339;29;20048;-71
2023/05/04 09:00:24;;;;;;;5.68;3.42;;;18.80;78.20;;;;;;4907801;29;19907;-71
2023/05/04 09:02:50;;;;;;;5.40;3.80;;;18.80;78.10;;;;;;4906489;29;20053;-70
2023/05/04 09:05:17;;;;;;;5.70;4.05;;;18.80;77.60;;;;;;4907432;29;20045;-71
2023/05/04 09:07:42;;;;;;;4.57;3.33;;;18.80;77.90;;;;;;4907438;29;20041;-70
2023/05/04 09:10:08;;;;;;;8.48;3.78;;;18.90;76.50;;;;;;4907131;29;20025;-71
2023/05/04 09:12:36;;;;;;;5.75;3.33;;;18.90;77.20;;;;;;4907367;29;20048;-71
2023/05/04 09:15:14;;;;;;;6.47;3.63;;;19.00;77.70;;;;;;4906758;29;20237;-70
2023/05/04 09:17:40;;;;;;;4.75;3.30;;;19.10;76.50;;;;;;4907249;29;20057;-71
2023/05/04 09:20:06;;;;;;;5.20;3.35;;;19.00;75.40;;;;;;4906708;29;20036;-70
2023/05/04 09:22:32;;;;;;;5.45;3.60;;;19.00;75.00;;;;;;4907242;29;20052;-71
2023/05/04 09:25:11;;;;;;;5.90;3.03;;;19.10;75.70;;;;;;4912995;29;20099;-71
2023/05/04 09:27:40;;;;;;;5.40;3.20;;;19.40;76.50;;;;;;4926075;29;20035;-71
2023/05/04 09:30:06;;;;;;;;;;;19.60;74.50;;;;;;4926116;29;20023;-71
2023/05/04 09:32:45;;;;;;;5.13;3.50;;;19.50;73.40;;;;;;4925957;29;19923;-70
2023/05/04 09:35:11;;;;;;;5.60;3.53;;;19.60;74.00;;;;;;4925772;29;20115;-73
2023/05/04 09:37:47;;;;;;;5.38;3.47;;;19.70;74.70;;;;;;4896503;29;20306;-71
2023/05/04 09:40:14;;;;;;;6.22;3.20;;;19.70;74.00;;;;;;4907141;29;20036;-72
2023/05/04 09:42:39;;;;;;;8.60;3.50;;;19.90;74.30;;;;;;4906848;29;20037;-71
2023/05/04 09:45:07;;;;;;;6.47;3.70;;;20.10;73.60;;;;;;4906320;29;20337;-71
2023/05/04 09:47:38;;;;;;;4.38;3.50;;;20.20;72.40;;;;;;4906815;29;20035;-71
2023/05/04 09:50:21;;;;;;;4.68;3.50;;;20.20;72.10;;;;;;4890055;29;20036;-71
2023/05/04 09:52:48;;;;;;;6.13;3.33;;;20.20;72.10;;;;;;4907706;29;20327;-70
2023/05/04 09:55:19;;;;;;;4.07;2.95;;;20.20;71.40;;;;;;4907088;29;20060;-70
2023/05/04 09:57:47;;;;;;;4.07;3.10;;;20.30;72.30;;;;;;4911615;29;20035;-69
2023/05/04 10:00:17;;;;;;;5.35;3.13;;;20.50;70.30;;;;;;4908563;29;20099;-69
2023/05/04 10:02:45;;;;;;;7.05;2.90;;;20.60;69.40;;;;;;4925732;29;20119;-70
2023/05/04 10:05:20;;;;;;;6.25;3.08;;;20.80;69.50;;;;;;4925615;29;20032;-69
2023/05/04 10:07:46;;;;;;;4.07;2.33;;;20.90;69.10;;;;;;4926063;29;20064;-69
2023/05/04 10:10:13;;;;;;;5.15;2.90;;;21.20;69.30;;;;;;4928783;29;20087;-71
2023/05/04 10:12:39;;;;;;;4.40;2.33;;;21.30;68.40;;;;;;4928792;29;20046;-72
2023/05/04 10:15:07;;;;;;;5.60;2.47;;;21.40;67.80;;;;;;4928967;29;20060;-71
2023/05/04 10:17:45;;;;;;;6.30;3.13;;;21.70;67.00;;;;;;4928900;29;20262;-70
2023/05/04 10:20:24;;;;;;;5.18;3.17;;;21.70;66.10;;;;;;4928649;29;20036;-71
2023/05/04 10:23:11;;;;;;;6.53;3.20;;;21.70;66.80;;;;;;4896431;29;20063;-70
2023/05/04 10:26:04;;;;;;;4.85;3.03;;;21.60;65.20;;;;;;4928574;29;20083;-70
2023/05/04 10:28:39;;;;;;;5.72;3.03;;;21.60;65.30;;;;;;4928895;29;20051;-69
2023/05/04 10:31:06;;;;;;;4.72;2.95;;;21.70;66.00;;;;;;4928629;29;20070;-70
2023/05/04 10:33:42;;;;;;;5.35;2.60;;;21.80;65.80;;;;;;4929244;29;20055;-70
2023/05/04 10:36:09;;;;;;;5.47;2.83;;;22.10;66.40;;;;;;4926577;29;20051;-70
2023/05/04 10:38:36;;;;;;;4.60;2.88;;;22.20;64.50;;;;;;4909542;29;20221;-70
2023/05/04 10:41:16;;;;;;;6.43;3.00;;;22.30;64.40;;;;;;4909105;29;20085;-69
2023/05/04 10:43:42;;;;;;;4.20;2.60;;;22.50;64.20;;;;;;4909520;29;20036;-72
2023/05/04 10:46:21;;;;;;;5.22;2.85;;;22.50;64.00;;;;;;4908988;29;20020;-71
2023/05/04 10:48:48;;;;;;;6.05;3.03;;;22.60;63.50;;;;;;4909750;29;20365;-70
2023/05/04 10:51:24;;;;;;;5.28;3.03;;;22.40;62.80;;;;;;4909085;29;20040;-70
2023/05/04 10:53:50;;;;;;;4.68;2.70;;;22.40;62.60;;;;;;4902443;29;20031;-71
2023/05/04 10:56:25;;;;;;;5.57;2.80;;;22.70;63.10;;;;;;4911116;29;20058;-71
2023/05/04 10:58:51;;;;;;;4.72;2.58;;;22.80;61.90;;;;;;4928380;29;20042;-70
2023/05/04 11:01:19;;;;;;;5.68;3.05;;;22.90;61.80;;;;;;4927468;29;20048;-69
2023/05/04 11:03:45;;;;;;;3.88;2.83;;;23.00;62.60;;;;;;4928267;29;20048;-71
2023/05/04 11:06:23;;;;;;;4.55;2.63;;;23.00;61.20;;;;;;4927667;29;20055;-71
2023/05/04 11:09:00;;;;;;;4.25;2.78;;;23.10;61.00;;;;;;4927863;29;20099;-70
2023/05/04 11:11:26;;;;;;;7.15;2.92;;;23.30;60.50;;;;;;4927775;29;20067;-71
2023/05/04 11:13:53;;;;;;;10.48;3.78;;;23.30;60.80;;;;;;4927880;29;20023;-70
2023/05/04 11:16:23;;;;;;;7.25;2.67;;;23.60;61.10;;;;;;4928048;29;20050;-69
2023/05/04 11:18:48;;;;;;;7.90;3.03;;;23.70;60.50;;;;;;4927881;29;20040;-70
2023/05/04 11:21:27;;;;;;;6.28;2.88;;;23.90;59.50;;;;;;4926634;29;20027;-71
2023/05/04 11:23:53;;;;;;;;;;;24.10;59.00;;;;;;4928058;29;20042;-70
2023/05/04 11:26:19;;;;;;;6.18;2.60;;;24.50;58.70;;;;;;4927478;29;19918;-71
2023/05/04 11:28:45;;;;;;;3.75;2.60;;;25.20;58.30;;;;;;4927616;29;20028;-71
2023/05/04 11:31:16;;;;;;;5.13;3.08;;;26.00;57.80;;;;;;4927486;29;20103;-71
2023/05/04 11:33:50;;;;;;;4.85;2.40;;;26.50;56.00;;;;;;4927728;29;20031;-70
2023/05/04 11:36:16;;;;;;;9.23;2.97;;;27.20;55.30;;;;;;4927161;29;20125;-71
2023/05/04 11:38:42;;;;;;;5.57;2.40;;;28.50;54.10;;;;;;4927373;29;20036;-71
2023/05/04 11:41:09;;;;;;;9.55;2.78;;;29.10;52.80;;;;;;4927031;29;20040;-72
2023/05/04 11:43:36;;;;;;;7.85;2.30;;;29.90;51.80;;;;;;4927461;29;20036;-71
2023/05/04 11:46:04;;;;;;;5.10;2.30;;;30.70;51.40;;;;;;4926746;29;20095;-71
2023/05/04 11:48:31;;;;;;;3.25;2.35;;;30.70;50.70;;;;;;4927226;29;20111;-72
2023/05/04 11:50:57;;;;;;;3.65;2.50;;;31.40;48.40;;;;;;4926727;29;20036;-72
2023/05/04 11:53:23;;;;;;;5.50;2.30;;;31.30;47.90;;;;;;4926816;29;20020;-70
2023/05/04 11:55:51;;;;;;;6.47;2.33;;;32.30;49.10;;;;;;4926938;29;20036;-69
2023/05/04 11:58:23;;;;;;;5.63;2.35;;;33.00;47.40;;;;;;4926347;29;20043;-72
2023/05/04 12:00:57;;;;;;;4.35;2.13;;;33.50;46.30;;;;;;4927274;29;20059;-69
2023/05/04 12:03:28;;;;;;;5.45;2.28;;;33.00;45.90;;;;;;4926818;29;20060;-71
2023/05/04 12:05:58;;;;;;;5.95;2.35;;;33.40;45.30;;;;;;4927147;29;20318;-69
2023/05/04 12:08:35;;;;;;;3.35;2.40;;;33.40;45.30;;;;;;4926848;29;20036;-72
2023/05/04 12:11:33;;;;;;;4.22;2.22;;;33.70;45.40;;;;;;4926359;29;20040;-71
2023/05/04 12:14:05;;;;;;;3.08;1.90;;;34.40;44.70;;;;;;4894885;29;20160;-71
2023/05/04 12:16:32;;;;;;;4.22;2.40;;;34.10;44.00;;;;;;4926765;29;20034;-72
2023/05/04 12:19:06;;;;;;;5.20;2.30;;;33.80;44.60;;;;;;4926106;29;20023;-71
2023/05/04 12:21:33;;;;;;;8.90;3.10;;;34.60;44.50;;;;;;4925204;29;20043;-70
2023/05/04 12:23:59;;;;;;;3.43;2.73;;;35.30;44.10;;;;;;4926509;29;20024;-70
2023/05/04 12:26:29;;;;;;;3.40;2.30;;;34.00;44.10;;;;;;4926406;29;20032;-71
2023/05/04 12:28:55;;;;;;;5.43;2.90;;;34.40;43.90;;;;;;4926607;29;20039;-70
2023/05/04 12:31:22;;;;;;;3.92;2.22;;;34.70;43.00;;;;;;4926390;29;20042;-70
2023/05/04 12:33:50;;;;;;;4.63;2.30;;;36.20;43.50;;;;;;4926483;29;20206;-71
2023/05/04 12:36:16;;;;;;;6.28;2.88;;;37.10;42.50;;;;;;4925986;29;20079;-71
2023/05/04 12:38:42;;;;;;;3.42;2.33;;;;;;;;;;4926713;29;20071;-70
2023/05/04 12:41:09;;;;;;;3.42;2.10;;;37.50;41.80;;;;;;4909257;29;20040;-71
2023/05/04 12:43:36;;;;;;;3.90;2.50;;;37.90;41.70;;;;;;4926650;29;20036;-71
2023/05/04 12:46:02;;;;;;;2.43;2.10;;;37.40;41.00;;;;;;4925681;29;20352;-71
2023/05/04 12:48:30;;;;;;;3.33;2.30;;;37.00;41.10;;;;;;4926653;29;20048;-70
2023/05/04 12:50:57;;;;;;;5.82;2.90;;;37.50;41.60;;;;;;4926211;29;20214;-70
2023/05/04 12:53:26;;;;;;;3.58;3.00;;;38.80;42.00;;;;;;4925039;29;20202;-72
2023/05/04 12:55:52;;;;;;;4.20;2.80;;;38.60;43.50;;;;;;4926468;29;20056;-71
2023/05/04 12:58:18;;;;;;;5.28;2.72;;;39.00;51.40;;;;;;4925699;29;20040;-72
2023/05/04 13:00:43;;;;;;;3.47;2.50;;;39.30;41.50;;;;;;4926066;29;20043;-72
2023/05/04 13:03:11;;;;;;;3.85;2.47;;;40.20;45.90;;;;;;4925630;29;20044;-71
2023/05/04 13:05:37;;;;;;;3.85;2.45;;;40.30;47.40;;;;;;4926250;29;20047;-72
2023/05/04 13:08:03;;;;;;;5.03;2.33;;;39.70;45.40;;;;;;4908823;29;20103;-72
2023/05/04 13:10:29;;;;;;;5.30;2.80;;;39.90;44.30;;;;;;4926680;29;20068;-71
2023/05/04 13:12:55;;;;;;;5.95;2.80;;;40.40;42.90;;;;;;4926484;29;20111;-71
2023/05/04 13:15:21;;;;;;;5.57;3.15;;;39.80;43.80;;;;;;4925757;29;20087;-71
2023/05/04 13:17:47;;;;;;;3.80;2.75;;;39.10;44.40;;;;;;4925992;29;20024;-71
2023/05/04 13:20:13;;;;;;;5.45;2.60;;;38.40;44.10;;;;;;4925453;29;20084;-72
2023/05/04 13:22:39;;;;;;;5.28;3.30;;;38.30;43.60;;;;;;4926241;29;20028;-71
2023/05/04 13:25:06;;;;;;;4.47;2.80;;;36.70;44.20;;;;;;4925692;29;20290;-71
2023/05/04 13:27:32;;;;;;;4.45;3.10;;;37.10;44.60;;;;;;4925873;29;20036;-71
2023/05/04 13:30:00;;;;;;;4.38;3.10;;;37.00;44.20;;;;;;4926265;29;20079;-71
2023/05/04 13:32:26;;;;;;;4.20;2.60;;;37.00;47.40;;;;;;4925788;29;20333;-71
2023/05/04 13:34:53;;;;;;;8.10;2.80;;;38.70;47.30;;;;;;4925728;29;20036;-72
2023/05/04 13:37:18;;;;;;;5.38;2.78;;;39.70;45.30;;;;;;4925637;29;20043;-72
2023/05/04 13:39:45;;;;;;;4.47;3.15;;;39.50;41.50;;;;;;4926155;29;20036;-71
2023/05/04 13:42:11;;;;;;;5.57;2.45;;;40.40;41.80;;;;;;4925061;29;20238;-72
2023/05/04 13:44:39;;;;;;;6.25;2.38;;;40.40;39.90;;;;;;4929443;29;20095;-72
2023/05/04 13:47:05;;;;;;;6.63;2.53;;;41.20;52.60;;;;;;4929028;29;20040;-71
2023/05/04 13:49:31;;;;;;;4.65;2.55;;;41.40;57.60;;;;;;4913219;29;20043;-71
2023/05/04 13:51:57;;;;;;;5.13;2.55;;;42.00;54.40;;;;;;4929602;29;20040;-71
2023/05/04 13:54:23;;;;;;;3.67;2.50;;;42.70;55.60;;;;;;4929021;29;20355;-72
2023/05/04 13:56:49;;;;;;;4.35;2.33;;;42.30;59.60;;;;;;4929036;29;20024;-71
2023/05/04 13:59:15;;;;;;;3.67;3.05;;;41.60;48.10;;;;;;4928933;29;20036;-70
2023/05/04 14:01:41;;;;;;;4.20;2.90;;;40.10;48.50;;;;;;4929104;29;20064;-71
2023/05/04 14:04:08;;;;;;;3.58;2.88;;;39.70;48.60;;;;;;4929149;29;20051;-71
2023/05/04 14:06:33;;;;;;;4.55;2.63;;;40.10;49.50;;;;;;4929160;29;20044;-70
2023/05/04 14:08:59;;;;;;;6.55;3.08;;;40.30;50.70;;;;;;4929187;29;20035;-71
2023/05/04 14:11:25;;;;;;;6.95;2.67;;;40.80;48.90;;;;;;4928481;29;20032;-70
2023/05/04 14:13:53;;;;;;;5.57;2.65;;;41.00;48.90;;;;;;4929321;29;20031;-71
2023/05/04 14:16:19;;;;;;;5.53;3.10;;;40.70;47.10;;;;;;4928351;29;20070;-71
2023/05/04 14:18:46;;;;;;;6.20;2.33;;;40.60;47.70;;;;;;4928905;29;20103;-72
2023/05/04 14:21:11;;;;;;;3.13;2.77;;;41.10;47.10;;;;;;4928484;29;20038;-72
2023/05/04 14:23:37;;;;;;;4.15;2.53;;;40.40;47.50;;;;;;4928856;29;20032;-72
2023/05/04 14:26:03;;;;;;;4.03;2.78;;;40.00;47.70;;;;;;4927919;29;20036;-71
2023/05/04 14:28:29;;;;;;;4.45;2.80;;;39.80;47.00;;;;;;4924305;29;20036;-72
2023/05/04 14:30:56;;;;;;;4.35;2.42;;;40.40;47.70;;;;;;4929131;29;20099;-72
2023/05/04 14:33:22;;;;;;;4.25;2.25;;;40.80;47.20;;;;;;4928408;29;20047;-72
2023/05/04 14:35:48;;;;;;;3.83;2.92;;;41.60;45.60;;;;;;4928744;29;20048;-72
2023/05/04 14:38:14;;;;;;;3.67;2.80;;;40.70;45.80;;;;;;4928058;29;20095;-72
2023/05/04 14:40:40;;;;;;;3.45;2.70;;;39.80;46.50;;;;;;4921704;29;20046;-71
2023/05/04 14:43:06;;;;;;;4.63;2.90;;;40.20;46.50;;;;;;4920352;29;20059;-71
2023/05/04 14:45:33;;;;;;;6.10;2.17;;;39.30;47.80;;;;;;4914657;29;20024;-71
2023/05/04 14:48:00;;;;;;;3.47;2.35;;;39.50;47.00;;;;;;4909914;29;20040;-72
2023/05/04 14:50:26;;;;;;;5.45;2.50;;;41.30;47.50;;;;;;4896871;29;20048;-71
2023/05/04 14:52:52;;;;;;;6.10;2.47;;;;;;;;;;4932707;29;20036;-71
2023/05/04 14:55:18;;;;;;;6.00;2.60;;;42.70;37.20;;;;;;4917984;29;20036;-70
2023/05/04 14:57:44;;;;;;;4.57;2.60;;;42.30;37.70;;;;;;4908505;29;20025;-72
2023/05/04 15:00:10;;;;;;;5.45;2.85;;;40.80;38.30;;;;;;4921273;29;20063;-69
2023/05/04 15:02:40;;;;;;;3.78;2.58;;;40.50;39.20;;;;;;4921038;29;20286;-71
2023/05/04 15:05:06;;;;;;;4.60;2.47;;;40.90;38.90;;;;;;4909106;29;20052;-71
2023/05/04 15:07:32;;;;;;;5.97;2.78;;;40.00;39.80;;;;;;4912067;29;20044;-71
2023/05/04 15:09:57;;;;;;;3.50;2.22;;;40.00;38.90;;;;;;4915460;29;20024;-72
2023/05/04 15:12:25;;;;;;;4.97;2.42;;;40.40;38.80;;;;;;4908748;29;20040;-71
2023/05/04 15:14:51;;;;;;;4.63;2.08;;;40.50;38.90;;;;;;4909187;29;20043;-71
2023/05/04 15:17:16;;;;;;;2.58;2.05;;;41.50;38.60;;;;;;4916244;29;20230;-71
2023/05/04 15:19:42;;;;;;;6.35;2.40;;;42.10;38.00;;;;;;4908941;29;20032;-71
2023/05/04 15:22:08;;;;;;;4.50;2.55;;;40.40;38.10;;;;;;4908302;29;20039;-72
2023/05/04 15:24:34;;;;;;;4.88;2.00;;;39.70;38.40;;;;;;4911191;29;20043;-71
2023/05/04 15:27:00;;;;;;;3.90;2.25;;;39.20;38.50;;;;;;4927683;29;20040;-71
2023/05/04 15:29:26;;;;;;;3.45;2.03;;;38.90;38.70;;;;;;4927082;29;20102;-71
2023/05/04 15:31:53;;;;;;;4.82;2.10;;;38.90;38.70;;;;;;4927556;29;20028;-71
2023/05/04 15:34:19;;;;;;;3.40;1.85;;;38.10;39.20;;;;;;4927320;29;20047;-71
2023/05/04 15:36:45;;;;;;;3.08;2.38;;;38.00;40.00;;;;;;4927559;29;20036;-71
2023/05/04 15:39:12;;;;;;;4.95;2.38;;;38.10;39.40;;;;;;4927177;29;20071;-71
2023/05/04 15:41:38;;;;;;;4.50;2.55;;;38.40;40.20;;;;;;4927650;29;20103;-71
2023/05/04 15:44:07;;;;;;;3.15;1.95;;;38.30;39.50;;;;;;4927468;29;20246;-71
2023/05/04 15:46:33;;;;;;;5.18;2.63;;;37.50;40.30;;;;;;4927116;29;20024;-71
2023/05/04 15:48:59;;;;;;;5.07;2.35;;;37.00;39.70;;;;;;4927201;29;20341;-70
2023/05/04 15:51:26;;;;;;;3.80;2.55;;;37.00;40.30;;;;;;4927031;29;20095;-71
2023/05/04 15:53:51;;;;;;;3.97;2.50;;;36.70;39.40;;;;;;4927135;29;20412;-71
2023/05/04 15:56:17;;;;;;;3.83;2.10;;;36.40;39.80;;;;;;4909801;29;20059;-71
2023/05/04 15:58:44;;;;;;;3.92;2.08;;;36.00;40.90;;;;;;4927130;29;20440;-72
2023/05/04 16:01:13;;;;;;;6.90;2.50;;;36.10;41.70;;;;;;4912570;29;20099;-73
2023/05/04 16:03:39;;;;;;;2.72;1.63;;;36.80;39.60;;;;;;4908118;29;20242;-71
2023/05/04 16:06:05;;;;;;;3.30;2.20;;;37.10;41.40;;;;;;4907732;29;20379;-71
2023/05/04 16:08:31;;;;;;;4.22;2.30;;;37.90;39.70;;;;;;4907747;29;20036;-71
2023/05/04 16:10:57;;;;;;;2.72;2.20;;;37.70;39.60;;;;;;4907616;29;20033;-71
2023/05/04 16:13:23;;;;;;;3.45;2.28;;;37.80;39.40;;;;;;4920647;29;20047;-71
2023/05/04 16:15:52;;;;;;;3.47;2.20;;;38.00;39.50;;;;;;4907925;29;20020;-71
2023/05/04 16:18:18;;;;;;;4.05;2.70;;;37.60;40.50;;;;;;4907784;29;20084;-72
2023/05/04 16:20:45;;;;;;;4.78;2.42;;;36.60;40.10;;;;;;4907749;29;20146;-72
2023/05/04 16:23:14;;;;;;;4.32;2.30;;;36.50;40.10;;;;;;4907580;29;20040;-72
2023/05/04 16:25:41;;;;;;;3.53;2.30;;;36.20;40.50;;;;;;4902142;29;20032;-72
2023/05/04 16:28:07;;;;;;;4.00;2.40;;;36.90;40.50;;;;;;4926734;29;20043;-71
2023/05/04 16:30:33;;;;;;;3.55;2.33;;;36.90;40.40;;;;;;4926106;29;20258;-72
2023/05/04 16:33:00;;;;;;;4.95;2.50;;;36.80;40.50;;;;;;4926450;29;20329;-71
2023/05/04 16:35:26;;;;;;;4.60;2.90;;;36.30;40.50;;;;;;4926178;29;20044;-71
2023/05/04 16:37:52;;;;;;;3.22;2.35;;;35.70;40.90;;;;;;4926208;29;20099;-71
2023/05/04 16:40:18;;;;;;;4.05;2.80;;;36.50;41.70;;;;;;4926386;29;20214;-72
2023/05/04 16:42:44;;;;;;;4.03;2.45;;;36.30;40.70;;;;;;4909657;29;20189;-72
2023/05/04 16:45:14;;;;;;;4.07;2.60;;;36.30;41.70;;;;;;4926762;29;20044;-72
2023/05/04 16:47:44;;;;;;;5.50;2.65;;;36.00;40.80;;;;;;4926721;29;20040;-71
2023/05/04 16:50:10;;;;;;;4.38;2.80;;;35.00;41.50;;;;;;4914428;29;20094;-71
2023/05/04 16:52:37;;;;;;;4.38;2.85;;;;;;;;;;4925793;29;20043;-71
2023/05/04 16:55:03;;;;;;;4.32;3.00;;;32.30;43.20;;;;;;4925943;29;20099;-71
2023/05/04 16:57:29;;;;;;;4.10;3.17;;;31.20;44.40;;;;;;4925614;29;20028;-70
2023/05/04 16:59:55;;;;;;;5.05;3.03;;;30.20;45.50;;;;;;4921495;29;20040;-71
2023/05/04 17:02:20;;;;;;;4.82;3.20;;;29.70;45.80;;;;;;4906870;29;20067;-72
2023/05/04 17:04:46;;;;;;;5.40;3.13;;;29.40;46.40;;;;;;4907194;29;20365;-70
2023/05/04 17:07:12;;;;;;;8.25;3.33;;;29.10;47.00;;;;;;4917314;29;20035;-70
2023/05/04 17:09:38;;;;;;;5.65;3.10;;;28.70;47.20;;;;;;4893412;29;20033;-69
2023/05/04 17:12:03;;;;;;;5.38;2.88;;;28.70;48.40;;;;;;4907340;29;20042;-70
2023/05/04 17:14:29;;;;;;;4.63;3.22;;;29.20;47.20;;;;;;4906913;29;20040;-71
2023/05/04 17:16:55;;;;;;;4.30;2.47;;;29.50;46.60;;;;;;4907165;29;20028;-71
2023/05/04 17:19:21;;;;;;;5.57;2.95;;;29.40;46.50;;;;;;4910132;29;20048;-74
2023/05/04 17:21:46;;;;;;;5.00;2.80;;;29.20;46.90;;;;;;4910902;29;20032;-70
2023/05/04 17:24:12;;;;;;;6.47;3.20;;;28.70;47.20;;;;;;4910888;29;20036;-77
2023/05/04 17:26:38;;;;;;;7.20;3.08;;;28.00;47.90;;;;;;4928412;29;20051;-70
2023/05/04 17:29:05;;;;;;;5.43;3.30;;;27.70;48.60;;;;;;4929923;29;20080;-72
2023/05/04 17:31:31;;;;;;;6.07;3.27;;;27.50;48.90;;;;;;4928853;29;20222;-70
2023/05/04 17:33:57;;;;;;;5.60;3.25;;;27.60;48.90;;;;;;4929584;29;20460;-70
2023/05/04 17:36:22;;;;;;;6.05;3.72;;;27.40;49.10;;;;;;4929280;29;20044;-70
2023/05/04 17:38:48;;;;;;;5.47;3.55;;;27.30;49.10;;;;;;4929648;29;20338;-69
2023/05/04 17:41:14;;;;;;;6.85;4.15;;;27.50;49.10;;;;;;4929549;29;20040;-69
2023/05/04 17:43:40;;;;;;;7.93;6.15;;;28.00;48.50;;;;;;4929266;29;20277;-69
2023/05/04 17:46:12;;;;;;;7.57;3.80;;;28.60;48.10;;;;;;4929370;29;20031;-70